Time;durP1;ratioP1;P1;durP2;ratioP2;P2;SDS_P1;SDS_P2;PMS_P1;PMS_P2;Temp;Humidity;BMP_temperature;BMP_pressure;BME280_temperature;BME280_humidity;BME280_pressure;Samples;Min_cycle;Max_cycle;Signal;HPM_P1;HPM_P2
2022/12/28 00:01:18;;;;;;;9.43;4.78;;;6.80;99.90;;;;;;5014566;28;20072;-64
2022/12/28 00:03:44;;;;;;;11.60;4.65;;;8.30;99.90;;;;;;5032165;28;20517;-65
2022/12/28 00:06:11;;;;;;;9.90;4.72;;;8.20;99.90;;;;;;5030628;28;20509;-66
2022/12/28 00:08:37;;;;;;;15.93;5.32;;;8.10;99.90;;;;;;5029476;28;20092;-65
2022/12/28 00:11:09;;;;;;;8.95;4.40;;;6.60;99.90;;;;;;5030743;28;20072;-65
2022/12/28 00:13:35;;;;;;;10.52;4.88;;;6.60;99.90;;;;;;5022896;28;20079;-65
2022/12/28 00:16:09;;;;;;;11.15;5.22;;;6.70;99.90;;;;;;5032923;28;20072;-65
2022/12/28 00:18:36;;;;;;;11.70;4.65;;;8.10;99.90;;;;;;5027992;28;20098;-65
2022/12/28 00:21:02;;;;;;;11.70;4.63;;;7.60;99.90;;;;;;5031289;28;20056;-65
2022/12/28 00:23:28;;;;;;;16.98;5.20;;;7.90;99.90;;;;;;5031257;28;20048;-64
2022/12/28 00:25:54;;;;;;;11.07;5.05;;;8.40;99.90;;;;;;5030861;28;20426;-64
2022/12/28 00:28:19;;;;;;;7.50;4.70;;;8.40;99.90;;;;;;5031202;28;20119;-64
2022/12/28 00:30:45;;;;;;;8.75;4.45;;;7.00;99.90;;;;;;5030895;28;20116;-64
2022/12/28 00:33:11;;;;;;;7.55;4.45;;;8.40;99.90;;;;;;5031559;28;20084;-64
2022/12/28 00:35:36;;;;;;;11.55;4.95;;;7.90;99.90;;;;;;5029782;28;20364;-65
2022/12/28 00:38:02;;;;;;;12.52;5.35;;;8.40;99.90;;;;;;5019374;28;20082;-65
2022/12/28 00:40:28;;;;;;;8.63;5.43;;;8.40;99.90;;;;;;5031551;28;20402;-64
2022/12/28 00:42:53;;;;;;;14.85;5.43;;;6.90;99.90;;;;;;5031645;28;20037;-64
2022/12/28 00:45:19;;;;;;;11.60;5.03;;;6.90;99.90;;;;;;5031658;28;20049;-64
2022/12/28 00:47:44;;;;;;;11.05;5.35;;;8.10;99.90;;;;;;5029628;28;20037;-64
2022/12/28 00:50:10;;;;;;;9.60;5.13;;;7.80;99.90;;;;;;5032306;28;20045;-64
2022/12/28 00:52:35;;;;;;;8.18;4.85;;;7.30;99.90;;;;;;5028312;28;20120;-64
2022/12/28 00:55:01;;;;;;;8.55;4.97;;;8.30;99.90;;;;;;5028676;28;20399;-65
2022/12/28 00:57:27;;;;;;;7.20;4.90;;;7.00;99.90;;;;;;5029855;28;20107;-64
2022/12/28 00:59:52;;;;;;;8.93;4.38;;;7.00;99.90;;;;;;5030672;28;20125;-64
2022/12/28 01:02:18;;;;;;;8.98;4.65;;;8.40;99.90;;;;;;5031775;28;20045;-65
2022/12/28 01:04:44;;;;;;;9.77;4.85;;;7.60;99.90;;;;;;5029490;28;20081;-65
2022/12/28 01:07:10;;;;;;;12.43;4.95;;;7.00;99.90;;;;;;5030029;28;20052;-65
2022/12/28 01:09:35;;;;;;;9.65;5.00;;;7.90;99.90;;;;;;5030739;28;20041;-65
2022/12/28 01:12:01;;;;;;;10.43;5.15;;;7.70;99.90;;;;;;5031783;28;20099;-65
2022/12/28 01:14:27;;;;;;;12.13;5.60;;;6.90;99.90;;;;;;5029699;28;20112;-65
2022/12/28 01:16:52;;;;;;;10.45;5.57;;;6.80;99.90;;;;;;5031249;28;20041;-65
2022/12/28 01:19:20;;;;;;;12.77;6.82;;;8.00;99.90;;;;;;5032116;28;20038;-65
2022/12/28 01:21:48;;;;;;;10.10;5.38;;;8.40;99.90;;;;;;5030094;28;20090;-65
2022/12/28 01:24:14;;;;;;;11.40;5.78;;;7.70;99.90;;;;;;5028603;28;20572;-64
2022/12/28 01:26:40;;;;;;;16.02;5.43;;;7.20;99.90;;;;;;5030074;28;20038;-64
2022/12/28 01:29:05;;;;;;;10.82;5.47;;;8.60;99.90;;;;;;5031830;28;20040;-64
2022/12/28 01:31:32;;;;;;;8.68;6.28;;;7.50;99.90;;;;;;5031677;28;20410;-64
2022/12/28 01:33:57;;;;;;;12.18;6.25;;;6.90;99.90;;;;;;5030157;28;20053;-65
2022/12/28 01:36:30;;;;;;;11.45;5.57;;;7.70;99.90;;;;;;5031422;28;20033;-65
2022/12/28 01:38:58;;;;;;;13.18;6.55;;;7.60;99.90;;;;;;5033439;28;20041;-65
2022/12/28 01:41:25;;;;;;;13.52;6.22;;;7.00;99.90;;;;;;5025891;28;20084;-65
2022/12/28 01:43:51;;;;;;;12.57;6.53;;;8.60;99.90;;;;;;5031385;28;20107;-65
2022/12/28 01:46:20;;;;;;;10.95;5.90;;;7.50;99.90;;;;;;5034208;28;20045;-65
2022/12/28 01:48:57;;;;;;;15.27;6.72;;;8.40;99.90;;;;;;5031690;28;20038;-65
2022/12/28 01:51:27;;;;;;;12.07;6.30;;;7.10;99.90;;;;;;5014387;28;20092;-64
2022/12/28 01:53:55;;;;;;;14.00;6.43;;;8.60;99.90;;;;;;5031255;28;20046;-64
2022/12/28 01:56:21;;;;;;;10.30;6.78;;;7.60;99.90;;;;;;5033822;28;20478;-65
2022/12/28 01:58:47;;;;;;;10.57;6.30;;;8.20;99.90;;;;;;5033223;28;20049;-65
2022/12/28 02:01:13;;;;;;;14.73;6.70;;;6.80;99.90;;;;;;5034113;28;20037;-65
2022/12/28 02:03:38;;;;;;;12.30;7.38;;;8.00;99.90;;;;;;5033240;28;20048;-65
2022/12/28 02:06:10;;;;;;;14.35;7.30;;;8.90;99.90;;;;;;5033212;28;20460;-65
2022/12/28 02:08:40;;;;;;;14.15;7.28;;;8.80;99.90;;;;;;5032335;28;20057;-65
2022/12/28 02:11:07;;;;;;;11.88;7.55;;;8.90;99.90;;;;;;5033285;28;20057;-65
2022/12/28 02:13:33;;;;;;;12.70;6.68;;;6.80;99.90;;;;;;5034220;28;20049;-65
2022/12/28 02:15:59;;;;;;;13.20;7.15;;;6.60;99.90;;;;;;5016248;28;20081;-65
2022/12/28 02:18:26;;;;;;;11.85;7.32;;;8.90;99.90;;;;;;5032758;28;20076;-65
2022/12/28 02:21:13;;;;;;;10.57;6.93;;;8.20;99.90;;;;;;5032524;28;20380;-65
2022/12/28 02:24:16;;;;;;;15.07;8.15;;;6.50;99.90;;;;;;5025507;28;20042;-65
2022/12/28 02:27:01;;;;;;;14.55;8.15;;;8.30;99.90;;;;;;5031420;28;20076;-65
2022/12/28 02:29:54;;;;;;;14.20;7.93;;;8.70;99.90;;;;;;5033966;28;20034;-65
2022/12/28 02:32:38;;;;;;;14.02;8.25;;;8.90;99.90;;;;;;5026863;28;20073;-65
2022/12/28 02:35:11;;;;;;;16.67;9.15;;;8.20;99.90;;;;;;5026213;28;20033;-65
2022/12/28 02:37:45;;;;;;;14.02;7.82;;;6.50;99.90;;;;;;5034638;28;20033;-65
2022/12/28 02:40:25;;;;;;;11.88;7.60;;;6.50;99.90;;;;;;5033167;28;20125;-65
2022/12/28 02:42:54;;;;;;;14.68;7.78;;;6.70;99.90;;;;;;5029309;28;20045;-65
2022/12/28 02:51:27;;;;;;;11.50;7.95;;;7.80;99.90;;;;;;5023966;28;20069;-65
2022/12/28 02:56:06;;;;;;;13.27;8.40;;;8.00;99.90;;;;;;5025938;28;20045;-65
2022/12/28 02:57:20;;;;;;;17.33;9.23;;;6.60;99.90;;;;;;5021465;28;20573;-65
2022/12/28 03:00:09;;;;;;;15.75;9.63;;;6.60;99.90;;;;;;5031093;28;20060;-65
2022/12/28 03:03:11;;;;;;;13.07;8.90;;;8.20;99.90;;;;;;5028941;28;20045;-65
2022/12/28 03:09:09;;;;;;;18.95;9.15;;;9.10;99.90;;;;;;5033407;28;20049;-65
2022/12/28 03:11:53;;;;;;;12.90;6.97;;;9.30;99.90;;;;;;5029952;28;20074;-65
2022/12/28 03:14:29;;;;;;;12.38;8.98;;;8.90;99.90;;;;;;5018645;28;20119;-65
2022/12/28 03:31:04;;;;;;;11.57;6.90;;;7.10;99.90;;;;;;5031751;28;20100;-65
2022/12/28 03:33:29;;;;;;;14.40;8.80;;;8.20;99.90;;;;;;4999461;28;20555;-65
2022/12/28 03:36:05;;;;;;;12.25;6.55;;;7.00;99.90;;;;;;5032013;28;20128;-65
2022/12/28 03:38:38;;;;;;;12.13;6.63;;;8.90;99.90;;;;;;5031438;28;20120;-65
2022/12/28 03:41:09;;;;;;;10.98;6.30;;;8.00;99.90;;;;;;5047567;28;20045;-65
2022/12/28 03:43:48;;;;;;;15.30;6.78;;;7.30;99.90;;;;;;5032733;28;20059;-66
2022/12/28 03:46:19;;;;;;;10.18;5.97;;;9.90;99.90;;;;;;5032152;28;20581;-66
2022/12/28 03:48:46;;;;;;;12.65;6.18;;;10.00;99.90;;;;;;5031232;28;20439;-66
2022/12/28 03:51:15;;;;;;;12.80;6.43;;;9.70;99.90;;;;;;5030397;28;20049;-65
2022/12/28 03:53:46;;;;;;;12.95;6.95;;;9.10;99.90;;;;;;5031271;28;20124;-65
2022/12/28 03:56:14;;;;;;;16.58;6.72;;;8.40;99.90;;;;;;5031929;28;20502;-65
2022/12/28 03:58:40;;;;;;;9.55;5.85;;;10.00;99.90;;;;;;5030581;28;20035;-66
2022/12/28 04:01:06;;;;;;;10.82;5.28;;;8.70;99.90;;;;;;5025863;28;20113;-65
2022/12/28 04:03:32;;;;;;;11.32;5.82;;;10.10;99.90;;;;;;5026720;28;20053;-66
2022/12/28 04:05:57;;;;;;;9.63;5.75;;;8.50;99.90;;;;;;5031640;28;20045;-66
2022/12/28 04:08:23;;;;;;;11.85;6.95;;;7.00;99.90;;;;;;5031996;28;20037;-65
2022/12/28 04:10:48;;;;;;;14.18;6.03;;;7.20;99.90;;;;;;5029736;28;20068;-66
2022/12/28 04:13:14;;;;;;;10.02;6.03;;;8.70;99.90;;;;;;5030658;28;20563;-66
2022/12/28 04:15:40;;;;;;;14.32;6.53;;;9.30;99.90;;;;;;5031627;28;20498;-65
2022/12/28 04:18:05;;;;;;;11.73;6.05;;;7.70;99.90;;;;;;5031473;28;20117;-65
2022/12/28 04:20:31;;;;;;;13.13;6.10;;;10.40;99.90;;;;;;5031508;28;20398;-65
2022/12/28 04:22:56;;;;;;;15.13;5.47;;;8.60;99.90;;;;;;5029315;28;20050;-66
2022/12/28 04:25:22;;;;;;;13.40;5.75;;;10.40;99.90;;;;;;5032268;28;20067;-65
2022/12/28 04:27:48;;;;;;;13.27;4.75;;;7.60;99.90;;;;;;5030688;28;20041;-66
2022/12/28 04:30:13;;;;;;;9.63;5.20;;;8.60;99.90;;;;;;5030148;28;20559;-66
2022/12/28 04:32:39;;;;;;;16.23;5.57;;;10.60;99.90;;;;;;5006944;28;20065;-65
2022/12/28 04:35:05;;;;;;;13.52;5.25;;;7.90;99.90;;;;;;5030604;28;20446;-66
2022/12/28 04:37:30;;;;;;;15.40;5.57;;;8.40;99.90;;;;;;5030776;28;20497;-66
2022/12/28 04:39:56;;;;;;;13.70;4.82;;;7.70;99.90;;;;;;5030967;28;20037;-66
2022/12/28 04:42:21;;;;;;;20.23;5.07;;;10.30;99.90;;;;;;5029608;28;20116;-66
2022/12/28 04:44:47;;;;;;;17.02;4.82;;;10.30;99.90;;;;;;5030308;28;20075;-66
2022/12/28 04:47:13;;;;;;;12.10;4.25;;;7.80;99.90;;;;;;5013972;28;20502;-65
2022/12/28 04:49:38;;;;;;;15.43;5.05;;;8.90;99.90;;;;;;5031886;28;20513;-66
2022/12/28 04:52:04;;;;;;;13.98;4.45;;;7.50;99.90;;;;;;5030238;28;20048;-66
2022/12/28 04:54:30;;;;;;;18.40;4.25;;;7.40;99.90;;;;;;5030555;28;20041;-66
2022/12/28 04:56:55;;;;;;;13.50;4.63;;;8.40;99.90;;;;;;5030492;28;20406;-66
2022/12/28 04:59:21;;;;;;;18.48;4.43;;;10.60;99.90;;;;;;5031433;28;20128;-66
2022/12/28 05:01:46;;;;;;;17.02;5.15;;;10.60;99.90;;;;;;5028074;28;20054;-66
2022/12/28 05:04:12;;;;;;;17.67;4.15;;;7.40;99.90;;;;;;5029752;28;20048;-66
2022/12/28 05:06:37;;;;;;;18.23;4.40;;;10.50;99.90;;;;;;5013433;28;20056;-66
2022/12/28 05:09:03;;;;;;;15.23;4.47;;;8.00;99.90;;;;;;5031271;28;20466;-66
2022/12/28 05:11:30;;;;;;;17.13;4.20;;;7.90;99.90;;;;;;5030259;28;20057;-66
2022/12/28 05:13:56;;;;;;;19.38;4.68;;;10.00;99.90;;;;;;5031976;28;20037;-66
2022/12/28 05:16:23;;;;;;;14.40;4.10;;;10.40;99.90;;;;;;5029327;28;20038;-66
2022/12/28 05:18:49;;;;;;;18.23;4.60;;;8.20;99.90;;;;;;5028150;28;20055;-66
2022/12/28 05:21:23;;;;;;;16.63;4.75;;;8.30;99.90;;;;;;5021100;28;20128;-66
2022/12/28 05:23:50;;;;;;;19.08;5.10;;;7.80;99.90;;;;;;5035962;28;20053;-66
2022/12/28 05:26:18;;;;;;;12.02;3.85;;;10.90;99.90;;;;;;5030024;28;20049;-66
2022/12/28 05:28:44;;;;;;;23.42;5.20;;;7.90;99.90;;;;;;5035077;28;20088;-66
2022/12/28 05:31:12;;;;;;;12.48;3.50;;;10.80;99.90;;;;;;5031428;28;20472;-66
2022/12/28 05:33:38;;;;;;;9.27;3.17;;;11.10;99.90;;;;;;5037377;28;20044;-66
2022/12/28 05:36:09;;;;;;;9.15;3.08;;;8.00;99.90;;;;;;5020369;28;20518;-66
2022/12/28 05:38:35;;;;;;;9.73;3.40;;;8.40;99.90;;;;;;5032827;28;20112;-66
2022/12/28 05:41:08;;;;;;;8.80;3.05;;;8.10;99.90;;;;;;5036467;28;20045;-66
2022/12/28 05:43:34;;;;;;;9.25;2.65;;;10.00;99.90;;;;;;5034647;28;20533;-66
2022/12/28 05:46:05;;;;;;;10.90;3.05;;;11.00;99.90;;;;;;5036608;28;20068;-66
2022/12/28 05:48:35;;;;;;;7.63;2.67;;;8.20;99.90;;;;;;5020575;28;20060;-66
2022/12/28 05:51:03;;;;;;;14.88;3.00;;;9.80;99.90;;;;;;5036403;28;20050;-66
2022/12/28 05:53:29;;;;;;;6.30;2.45;;;10.10;99.90;;;;;;5035807;28;20033;-66
2022/12/28 05:56:22;;;;;;;8.30;2.88;;;8.50;99.90;;;;;;5035299;28;20045;-66
2022/12/28 05:58:54;;;;;;;9.88;2.83;;;10.70;99.90;;;;;;5034369;28;20042;-67
2022/12/28 06:01:22;;;;;;;9.50;2.45;;;8.50;99.90;;;;;;5035830;28;20402;-65
2022/12/28 06:03:52;;;;;;;7.80;2.38;;;8.60;99.90;;;;;;5037028;28;20070;-66
2022/12/28 06:06:18;;;;;;;10.55;2.42;;;11.20;99.90;;;;;;5036916;28;20066;-66
2022/12/28 06:08:45;;;;;;;6.10;2.70;;;10.90;99.90;;;;;;5035871;28;20503;-66
2022/12/28 06:11:15;;;;;;;11.30;3.08;;;11.50;99.90;;;;;;5036217;28;20121;-66
2022/12/28 06:13:41;;;;;;;7.28;2.58;;;8.90;99.90;;;;;;5035222;28;20522;-66
2022/12/28 06:16:13;;;;;;;8.82;2.53;;;11.60;99.90;;;;;;5017368;28;20125;-66
2022/12/28 06:18:39;;;;;;;9.45;2.72;;;11.60;99.90;;;;;;5032346;28;20029;-66
2022/12/28 06:21:08;;;;;;;10.68;2.70;;;8.80;99.90;;;;;;5035720;28;20654;-66
2022/12/28 06:23:34;;;;;;;10.35;3.28;;;11.60;99.90;;;;;;5023981;28;20490;-66
2022/12/28 06:26:02;;;;;;;13.88;3.30;;;8.90;99.90;;;;;;5025947;28;20044;-66
2022/12/28 06:28:28;;;;;;;12.50;3.25;;;9.20;99.90;;;;;;5025040;28;20072;-66
2022/12/28 06:31:01;;;;;;;10.05;2.80;;;8.80;99.90;;;;;;5024856;28;20126;-66
2022/12/28 06:33:27;;;;;;;6.00;2.47;;;8.90;99.90;;;;;;5026808;28;20057;-66
2022/12/28 06:35:52;;;;;;;10.45;3.28;;;11.60;99.90;;;;;;5024640;28;20498;-66
2022/12/28 06:38:18;;;;;;;14.50;3.55;;;13.60;99.90;;;;;;5020179;28;20038;-66
2022/12/28 06:40:44;;;;;;;16.40;3.88;;;10.60;99.90;;;;;;5027849;28;20065;-66
2022/12/28 06:43:09;;;;;;;16.05;4.50;;;11.30;99.90;;;;;;5031355;28;20049;-66
2022/12/28 06:45:35;;;;;;;11.02;3.33;;;8.60;99.90;;;;;;5028455;28;20037;-66
2022/12/28 06:48:00;;;;;;;21.65;3.80;;;10.30;99.90;;;;;;5023324;28;20548;-66
2022/12/28 06:50:26;;;;;;;23.38;4.05;;;10.70;99.90;;;;;;5025005;28;20033;-66
2022/12/28 06:52:51;;;;;;;34.03;4.28;;;11.60;99.90;;;;;;5031537;28;20055;-66
2022/12/28 06:55:17;;;;;;;16.42;3.95;;;8.70;99.90;;;;;;5028844;28;20044;-66
2022/12/28 06:57:42;;;;;;;21.50;4.13;;;11.80;99.90;;;;;;5022913;28;20037;-67
2022/12/28 07:00:09;;;;;;;24.08;3.90;;;8.40;99.90;;;;;;5024429;28;20038;-66
2022/12/28 07:02:34;;;;;;;23.73;4.88;;;8.40;99.90;;;;;;5031867;28;20111;-66
2022/12/28 07:05:00;;;;;;;28.65;4.47;;;10.60;99.90;;;;;;5030244;28;20037;-66
2022/12/28 07:07:25;;;;;;;28.48;4.65;;;12.10;99.90;;;;;;5030144;28;21245;-66
2022/12/28 07:09:51;;;;;;;23.33;4.65;;;12.00;99.90;;;;;;5027373;28;20087;-67
2022/12/28 07:12:16;;;;;;;22.15;4.47;;;11.90;99.90;;;;;;5031317;28;20124;-66
2022/12/28 07:14:42;;;;;;;26.58;4.97;;;8.50;99.90;;;;;;5030060;28;20073;-66
2022/12/28 07:17:07;;;;;;;19.38;4.35;;;8.60;99.90;;;;;;5019741;28;20076;-67
2022/12/28 07:19:33;;;;;;;26.23;5.05;;;10.60;99.90;;;;;;5021986;28;20052;-66
2022/12/28 07:21:58;;;;;;;34.20;5.28;;;11.30;99.90;;;;;;5029102;28;20045;-66
2022/12/28 07:24:24;;;;;;;29.48;5.50;;;11.30;99.90;;;;;;5029015;28;20057;-66
2022/12/28 07:26:49;;;;;;;25.67;5.20;;;11.00;99.90;;;;;;5027852;28;20044;-66
2022/12/28 07:29:15;;;;;;;24.83;4.57;;;8.60;99.90;;;;;;5033232;28;20052;-66
2022/12/28 07:31:41;;;;;;;25.50;4.50;;;11.00;99.90;;;;;;5023940;28;20033;-66
2022/12/28 07:34:06;;;;;;;23.30;5.50;;;9.70;99.90;;;;;;5029141;28;20034;-67
2022/12/28 07:36:33;;;;;;;22.25;4.63;;;11.30;99.90;;;;;;5021794;28;20049;-67
2022/12/28 07:38:59;;;;;;;29.67;5.63;;;8.70;99.90;;;;;;5032523;28;20064;-67
2022/12/28 07:41:28;;;;;;;19.83;4.68;;;11.90;99.90;;;;;;5031121;28;20042;-67
2022/12/28 07:43:53;;;;;;;20.80;4.18;;;10.80;99.90;;;;;;5023747;28;20044;-67
2022/12/28 07:46:25;;;;;;;13.30;3.70;;;11.90;99.90;;;;;;5029838;28;20478;-67
2022/12/28 07:48:51;;;;;;;21.13;4.57;;;8.60;99.90;;;;;;5032094;28;20500;-67
2022/12/28 07:51:27;;;;;;;25.20;5.45;;;8.90;99.90;;;;;;5030423;28;20056;-67
2022/12/28 07:53:53;;;;;;;;;;;11.40;99.90;;;;;;5032395;28;20037;-66
2022/12/28 07:56:20;;;;;;;49.53;7.60;;;8.60;99.90;;;;;;5027498;28;19921;-66
2022/12/28 07:58:54;;;;;;;51.97;6.85;;;8.90;99.90;;;;;;5031400;28;20060;-66
2022/12/28 08:01:21;;;;;;;24.25;5.07;;;11.80;99.90;;;;;;5021376;28;20049;-67
2022/12/28 08:03:47;;;;;;;13.70;3.08;;;11.70;99.90;;;;;;5011150;28;20025;-67
2022/12/28 08:06:18;;;;;;;17.67;4.20;;;10.90;99.90;;;;;;5019716;28;20063;-68
2022/12/28 08:08:46;;;;;;;17.42;2.75;;;12.00;99.90;;;;;;5024859;28;20064;-67
2022/12/28 08:11:15;;;;;;;19.38;3.42;;;9.40;99.90;;;;;;5007607;28;21024;-67
2022/12/28 08:13:43;;;;;;;21.67;3.42;;;8.30;99.90;;;;;;5026699;28;20053;-68
2022/12/28 08:16:11;;;;;;;20.55;3.00;;;8.80;99.90;;;;;;5028177;28;20041;-67
2022/12/28 08:18:37;;;;;;;22.00;3.40;;;11.40;99.90;;;;;;5028980;28;20049;-67
2022/12/28 08:21:10;;;;;;;16.63;3.22;;;7.90;99.90;;;;;;5026673;28;20483;-67
2022/12/28 08:23:35;;;;;;;14.85;2.50;;;8.70;99.90;;;;;;5029076;28;20044;-67
2022/12/28 08:26:10;;;;;;;14.80;2.63;;;12.00;99.90;;;;;;5023085;28;20045;-67
2022/12/28 08:28:37;;;;;;;10.90;2.33;;;9.20;99.90;;;;;;5027093;28;20049;-67
2022/12/28 08:31:11;;;;;;;12.82;2.22;;;9.30;99.90;;;;;;5031164;28;20061;-67
2022/12/28 08:33:37;;;;;;;8.32;1.90;;;9.20;99.90;;;;;;5027210;28;20042;-67
2022/12/28 08:36:04;;;;;;;7.07;1.90;;;11.80;99.90;;;;;;5023230;28;20034;-67
2022/12/28 08:38:30;;;;;;;5.18;1.70;;;11.50;99.90;;;;;;5029291;28;20099;-66
2022/12/28 08:40:57;;;;;;;5.57;1.55;;;11.70;99.90;;;;;;5030586;28;20033;-67
2022/12/28 08:43:23;;;;;;;5.93;1.67;;;11.10;99.90;;;;;;5028714;28;20076;-67
2022/12/28 08:46:05;;;;;;;6.13;1.75;;;12.10;99.90;;;;;;5023192;28;20068;-67
2022/12/28 08:48:32;;;;;;;7.22;1.92;;;12.20;99.90;;;;;;5009690;28;20041;-67
2022/12/28 08:51:04;;;;;;;9.18;1.73;;;11.80;99.90;;;;;;5025313;28;20109;-67
2022/12/28 08:53:30;;;;;;;9.10;2.58;;;8.40;99.90;;;;;;5030764;28;20041;-67
2022/12/28 08:56:02;;;;;;;13.27;2.42;;;11.40;99.90;;;;;;5022635;28;20479;-67
2022/12/28 08:58:28;;;;;;;6.05;1.80;;;11.80;99.90;;;;;;5018926;28;20036;-67
2022/12/28 09:00:53;;;;;;;6.50;2.00;;;12.10;99.90;;;;;;5027610;28;20045;-67
2022/12/28 09:03:19;;;;;;;5.28;2.00;;;12.30;99.90;;;;;;5013204;28;20437;-67
2022/12/28 09:05:44;;;;;;;8.55;1.70;;;8.90;99.90;;;;;;5020040;28;20490;-67
2022/12/28 09:08:10;;;;;;;6.32;2.20;;;12.20;99.90;;;;;;5028108;28;20056;-67
2022/12/28 09:10:35;;;;;;;13.85;2.38;;;8.90;99.90;;;;;;5029624;28;20047;-67
2022/12/28 09:13:01;;;;;;;14.45;3.78;;;8.90;99.90;;;;;;5027236;28;20479;-67
2022/12/28 09:15:28;;;;;;;18.27;4.10;;;12.10;99.90;;;;;;5028227;28;20490;-67
2022/12/28 09:17:53;;;;;;;21.95;4.68;;;11.80;99.90;;;;;;5027984;28;20116;-67
2022/12/28 09:20:19;;;;;;;24.70;5.32;;;8.90;99.90;;;;;;5021414;28;20368;-67
2022/12/28 09:22:44;;;;;;;17.05;4.13;;;10.70;99.90;;;;;;5019722;28;20091;-68
2022/12/28 09:25:10;;;;;;;18.63;4.43;;;8.70;99.90;;;;;;5013771;28;20045;-68
2022/12/28 09:27:35;;;;;;;15.25;3.17;;;8.80;99.90;;;;;;5009557;28;20038;-68
2022/12/28 09:30:02;;;;;;;17.67;4.05;;;12.30;99.90;;;;;;5011331;28;20033;-65
2022/12/28 09:32:27;;;;;;;12.35;2.92;;;8.80;99.90;;;;;;5017897;28;20030;-65
2022/12/28 09:34:53;;;;;;;11.88;3.50;;;8.70;99.90;;;;;;5014525;28;20125;-65
2022/12/28 09:37:19;;;;;;;8.98;2.35;;;8.70;99.90;;;;;;5018291;28;20029;-65
2022/12/28 09:39:44;;;;;;;6.22;1.92;;;12.10;99.90;;;;;;5018700;28;20515;-65
2022/12/28 09:42:17;;;;;;;5.88;1.80;;;9.50;99.90;;;;;;5051718;28;20045;-66
2022/12/28 09:44:48;;;;;;;2.72;1.48;;;12.20;99.90;;;;;;5020114;28;20099;-66
2022/12/28 09:47:20;;;;;;;7.57;1.80;;;10.00;99.90;;;;;;5031642;28;20552;-65
2022/12/28 09:50:23;;;;;;;3.00;1.33;;;8.90;99.90;;;;;;5031427;28;20128;-65
2022/12/28 09:53:18;;;;;;;3.88;1.08;;;11.80;99.90;;;;;;5026653;28;20072;-65
2022/12/28 09:56:25;;;;;;;2.92;1.20;;;9.00;99.90;;;;;;5030630;28;20041;-65
2022/12/28 09:58:52;;;;;;;8.45;1.95;;;10.50;99.90;;;;;;5028591;28;20045;-65
2022/12/28 10:01:19;;;;;;;4.30;1.60;;;12.10;99.90;;;;;;5029102;28;20078;-65
2022/12/28 10:03:46;;;;;;;3.45;1.50;;;8.90;99.90;;;;;;5022251;28;20045;-65
2022/12/28 10:06:15;;;;;;;7.32;2.17;;;9.50;99.90;;;;;;5028843;28;20049;-65
2022/12/28 10:08:47;;;;;;;5.72;2.60;;;13.20;99.90;;;;;;5034413;28;20041;-65
2022/12/28 10:11:25;;;;;;;6.55;2.25;;;8.80;99.90;;;;;;5033091;28;20045;-65
2022/12/28 10:13:58;;;;;;;3.50;1.80;;;12.10;99.90;;;;;;5029953;28;20454;-65
2022/12/28 10:16:28;;;;;;;6.43;2.28;;;10.70;99.90;;;;;;5024467;28;20037;-65
2022/12/28 10:18:54;;;;;;;7.00;2.20;;;9.00;99.90;;;;;;5018127;28;20454;-65
2022/12/28 10:21:22;;;;;;;4.93;2.30;;;12.50;99.90;;;;;;5030285;28;20096;-65
2022/12/28 10:23:51;;;;;;;6.95;2.42;;;12.70;99.90;;;;;;5025955;28;20067;-65
2022/12/28 10:26:19;;;;;;;6.78;2.58;;;9.90;99.90;;;;;;5025571;28;20085;-65
2022/12/28 10:28:51;;;;;;;3.60;2.28;;;10.80;99.90;;;;;;5025401;28;20662;-65
2022/12/28 10:31:35;;;;;;;6.88;2.42;;;8.80;99.90;;;;;;5033493;28;20045;-65
2022/12/28 10:34:01;;;;;;;4.30;2.65;;;12.50;99.90;;;;;;5020192;28;20042;-65
2022/12/28 10:36:33;;;;;;;4.38;2.88;;;12.30;99.90;;;;;;5030589;28;20506;-65
2022/12/28 10:39:00;;;;;;;8.45;3.78;;;11.80;99.90;;;;;;5032030;28;20457;-65
2022/12/28 10:41:37;;;;;;;10.65;4.57;;;9.30;99.90;;;;;;5023213;28;20491;-65
2022/12/28 10:44:20;;;;;;;11.27;4.85;;;11.70;99.90;;;;;;5029430;28;20359;-65
2022/12/28 10:46:58;;;;;;;13.27;5.15;;;12.60;99.90;;;;;;5030762;28;20341;-65
2022/12/28 10:49:31;;;;;;;19.75;5.50;;;10.40;99.90;;;;;;5023438;28;20046;-65
2022/12/28 10:52:00;;;;;;;14.13;5.00;;;12.30;99.90;;;;;;5033104;28;20056;-65
2022/12/28 10:54:26;;;;;;;17.75;5.00;;;9.80;99.90;;;;;;5029579;28;20452;-66
2022/12/28 10:56:52;;;;;;;14.35;5.25;;;12.30;99.90;;;;;;5030403;28;20068;-65
2022/12/28 10:59:28;;;;;;;16.05;4.60;;;12.80;99.90;;;;;;5033815;28;20041;-65
2022/12/28 11:02:21;;;;;;;14.18;5.03;;;10.00;99.90;;;;;;5030707;28;20117;-65
2022/12/28 11:05:20;;;;;;;10.70;4.45;;;9.60;99.90;;;;;;5026268;28;20033;-65
2022/12/28 11:07:46;;;;;;;9.02;3.90;;;9.10;99.90;;;;;;5031095;28;20084;-66
2022/12/28 11:10:22;;;;;;;15.55;5.05;;;10.60;99.90;;;;;;5026966;28;20092;-65
2022/12/28 11:12:49;;;;;;;9.98;4.22;;;12.80;99.90;;;;;;5030398;28;20092;-65
2022/12/28 11:15:27;;;;;;;11.52;4.95;;;12.50;99.90;;;;;;5029358;28;20030;-65
2022/12/28 11:18:15;;;;;;;13.27;4.40;;;12.70;99.90;;;;;;5027823;28;20044;-65
2022/12/28 11:20:44;;;;;;;17.35;5.43;;;13.10;99.90;;;;;;5027173;28;20049;-66
2022/12/28 11:23:17;;;;;;;19.02;5.47;;;9.20;99.90;;;;;;5021602;28;20562;-65
2022/12/28 11:25:43;;;;;;;13.88;5.00;;;13.20;99.90;;;;;;5011481;28;20048;-65
2022/12/28 11:28:15;;;;;;;12.73;4.13;;;11.80;99.90;;;;;;5031081;28;20582;-65
2022/12/28 11:30:45;;;;;;;12.50;4.28;;;9.60;99.90;;;;;;5026387;28;20065;-65
2022/12/28 11:33:34;;;;;;;14.95;4.93;;;9.80;99.90;;;;;;5024375;28;20116;-65
2022/12/28 11:36:00;;;;;;;15.60;4.40;;;9.10;99.90;;;;;;5028044;28;20048;-65
2022/12/28 11:38:41;;;;;;;14.10;4.80;;;10.30;99.90;;;;;;5027415;28;20088;-65
2022/12/28 11:41:31;;;;;;;13.55;4.18;;;10.80;99.90;;;;;;5030618;28;20403;-65
2022/12/28 11:44:03;;;;;;;11.07;4.45;;;13.00;99.90;;;;;;5016098;28;20050;-65
2022/12/28 11:46:29;;;;;;;18.95;4.60;;;10.00;99.90;;;;;;5023505;28;20048;-65
2022/12/28 11:49:00;;;;;;;15.43;4.47;;;10.30;99.90;;;;;;5024625;28;20033;-65
2022/12/28 11:51:35;;;;;;;10.18;4.40;;;12.60;99.90;;;;;;5031458;28;20041;-65
2022/12/28 11:54:37;;;;;;;9.25;4.20;;;12.80;99.90;;;;;;5029253;28;20112;-65
2022/12/28 11:57:03;;;;;;;11.43;3.90;;;12.20;99.90;;;;;;5026323;28;20435;-65
2022/12/28 11:59:34;;;;;;;12.35;3.88;;;10.40;99.90;;;;;;5025185;28;20037;-65
2022/12/28 12:02:06;;;;;;;11.40;3.78;;;9.30;99.90;;;;;;5024238;28;20487;-65
2022/12/28 12:04:34;;;;;;;12.15;4.28;;;12.80;99.90;;;;;;5024348;28;20041;-65
2022/12/28 12:07:02;;;;;;;11.95;4.43;;;10.10;99.90;;;;;;5021255;28;20410;-66
2022/12/28 12:09:42;;;;;;;6.03;2.97;;;13.20;99.90;;;;;;5025184;28;20049;-67
2022/12/28 12:12:14;;;;;;;6.70;3.10;;;13.20;99.90;;;;;;5020387;28;20057;-66
2022/12/28 12:14:55;;;;;;;8.45;3.15;;;11.70;99.90;;;;;;5022619;28;20109;-66
2022/12/28 12:17:46;;;;;;;6.43;2.45;;;9.80;99.90;;;;;;5030524;28;20041;-65
2022/12/28 12:20:37;;;;;;;4.70;2.17;;;9.20;99.90;;;;;;5027647;28;20605;-65
2022/12/28 12:23:39;;;;;;;3.28;2.05;;;10.60;99.90;;;;;;5020520;28;20065;-65
2022/12/28 12:26:32;;;;;;;4.18;2.25;;;11.30;99.90;;;;;;5014953;28;20077;-65
2022/12/28 12:29:18;;;;;;;7.05;2.03;;;11.30;99.90;;;;;;5019183;28;20045;-65
2022/12/28 12:31:54;;;;;;;6.00;2.10;;;12.00;99.90;;;;;;5028155;28;20060;-65
2022/12/28 12:34:24;;;;;;;7.10;2.53;;;9.60;99.90;;;;;;5020870;28;20418;-65
2022/12/28 12:37:15;;;;;;;9.68;2.33;;;10.10;99.90;;;;;;5026365;28;20103;-65
2022/12/28 12:40:11;;;;;;;6.32;2.75;;;9.20;99.90;;;;;;5026191;28;20087;-66
2022/12/28 12:42:58;;;;;;;7.65;2.50;;;12.80;99.90;;;;;;5029454;28;20072;-65
2022/12/28 12:45:54;;;;;;;5.20;2.22;;;12.10;99.90;;;;;;5019463;28;20064;-66
2022/12/28 12:48:54;;;;;;;7.10;2.20;;;10.50;99.90;;;;;;5017184;28;20051;-66
2022/12/28 12:51:35;;;;;;;5.32;2.35;;;10.50;99.90;;;;;;5022800;28;20305;-65
2022/12/28 12:54:10;;;;;;;10.95;3.00;;;12.40;99.90;;;;;;5031583;28;20044;-65
2022/12/28 12:56:54;;;;;;;10.15;2.47;;;11.20;99.90;;;;;;5029613;28;20042;-65
2022/12/28 12:59:38;;;;;;;5.70;2.20;;;12.10;99.90;;;;;;5026248;28;20121;-66
2022/12/28 13:02:12;;;;;;;4.95;2.00;;;9.30;99.90;;;;;;5022138;28;20038;-66
2022/12/28 13:04:43;;;;;;;3.13;1.95;;;13.30;99.90;;;;;;5020086;28;20087;-66
2022/12/28 13:07:25;;;;;;;5.40;1.90;;;13.20;99.90;;;;;;5027871;28;20038;-65
2022/12/28 13:09:54;;;;;;;10.40;2.20;;;9.30;99.90;;;;;;5029318;28;20039;-65
2022/12/28 13:12:20;;;;;;;6.43;2.20;;;12.10;99.90;;;;;;5027150;28;20403;-65
2022/12/28 13:14:49;;;;;;;5.57;2.00;;;12.60;99.90;;;;;;5024468;28;20038;-65
2022/12/28 13:17:18;;;;;;;8.15;2.03;;;11.90;99.90;;;;;;5030456;28;20075;-65
2022/12/28 13:19:44;;;;;;;8.18;2.20;;;12.90;99.90;;;;;;5020061;28;20095;-65
2022/12/28 13:22:32;;;;;;;8.55;2.22;;;10.40;99.90;;;;;;5029139;28;20057;-65
2022/12/28 13:24:58;;;;;;;4.13;1.90;;;13.00;99.90;;;;;;5023021;28;20052;-66
2022/12/28 13:27:30;;;;;;;6.78;2.05;;;10.60;99.90;;;;;;5026854;28;20050;-65